Historyczne dane pomiarowe

Dodano dane terminowe – wersja testowa.

Dane z okresu 1951-2019

Wersja bazy: 1.34 [2019-03-16, lista zmian], aktualizacja planowana na 2019-04-15

Dane meteo z obszaru Polski uzyskane na podstawie danych udostępnionych przez Instytut Meteorologii i Gospodarki Wodnej – Państwowy Instytut Badawczy.

 

Wybierz Datę:    

       

TemperaturaWilgotnośćZachmurzenieWiatrCiśnienieWidzialnośćZjawiska
 Data    tng td wb rh cc ccl cl cm ch dir g1 g2 mslp ppp      
1999-06-19 00:00:00 13.0--- 12.7 12.898wxwxwx4wx--1017.2 994.1 14.1---wxw1
1999-06-19 01:00:00 13.0--- 12.5 12.797wxwxwx4wx--1017.3 994.2----wx
1999-06-19 02:00:00 13.0--- 12.5 12.797wxwxwx3wx--1017.2 994.1----wx
1999-06-19 03:00:00 12.9--- 12.4 12.697wxwxwxwx3wx--1017.3 994.2----wx
1999-06-19 04:00:00 13.0--- 12.5 12.797wxwxwx3wx--1017.3 994.2----wx
1999-06-19 05:00:00 13.1--- 12.6 12.897wxwxwx3wx--1017.7 994.6----wx
1999-06-19 06:00:00 13.1--- 12.6 12.897wxwxwx2wx--1018.3 995.2 0.0---wx
1999-06-19 07:00:00 13.7--- 13.4 13.598wxwxwx3wx--1018.1 995.1----wx
1999-06-19 08:00:00 14.0--- 13.3 13.696wxwxwx2wx--1018.2 995.2----wx
1999-06-19 09:00:00 14.5--- 13.3 13.893wxwxwx2wx--1018.6 995.6----wx
1999-06-19 10:00:00 14.8--- 13.3 13.991wxwxwx2wx--1018.8 995.8----wx
1999-06-19 11:00:00 14.9--- 13.4 14.091wxwxwx2wx--1018.7 995.7----wx
1999-06-19 12:00:00 16.4--- 14.1 15.086wxwxwxwx2wx--1018.6 995.8 0.0---wx
1999-06-19 13:00:00 18.0--- 12.5 14.770wxwxwxwx3wx--1018.5 995.8----wx
1999-06-19 14:00:00 19.6--- 11.0 14.658wxwxwxwx3wx--1018.2 995.6----wx
1999-06-19 15:00:00 19.4--- 13.1 15.667wxwxwxwx3wx--1018.0 995.4----wx
1999-06-19 16:00:00 20.1--- 13.7 16.267wxwxwxwx3wx--1017.7 995.2----wx
1999-06-19 17:00:00 20.4--- 13.4 16.164wxwxwxwx3wx--1017.7 995.2----wx
1999-06-19 18:00:00 19.6--- 13.7 16.069wxwxwxwx2wx--1017.8 995.2 0.0---wx
1999-06-19 19:00:00 18.3--- 13.9 15.675wxwxwx2wx--1018.2 995.5----wx
1999-06-19 20:00:00 17.5--- 13.4 15.077wxwx2wx--1018.5 995.7----wx
1999-06-19 21:00:00 16.2--- 13.5 14.684wxwx1wx--1018.4 995.5----wx
1999-06-19 22:00:00 15.3--- 13.6 14.390wxwx2wx--1018.6 995.7----wx
1999-06-19 23:00:00 14.1--- 13.3 13.695wxwxwx1wx--1018.7 995.7----wx

 

Źródłem pochodzenia danych jest Instytut Meteorologii i Gospodarki Wodnej – Państwowy Instytut Badawczy. Dane Instytutu Meteorologii i Gospodarki Wodnej – Państwowego Instytutu Badawczego zostały przetworzone.

Dane źródłowe można odnaleźć na stronie https://dane.imgw.pl